createdAt,value
2019-02-26T00:01:35.455Z,7.30
2019-02-26T00:04:05.581Z,7.30
2019-02-26T00:06:35.734Z,7.30
2019-02-26T00:09:08.188Z,7.40
2019-02-26T00:11:40.157Z,7.30
2019-02-26T00:14:13.137Z,7.30
2019-02-26T00:16:42.851Z,7.10
2019-02-26T00:19:14.413Z,6.90
2019-02-26T00:21:45.676Z,6.80
2019-02-26T00:24:16.799Z,6.70
2019-02-26T00:26:47.157Z,6.60
2019-02-26T00:29:17.292Z,6.40
2019-02-26T00:31:49.015Z,6.30
2019-02-26T00:34:20.218Z,6.20
2019-02-26T00:36:50.451Z,6.10
2019-02-26T00:39:21.035Z,6.10
2019-02-26T00:41:53.674Z,6.10
2019-02-26T00:44:25.269Z,6.10
2019-02-26T00:46:57.564Z,6.10
2019-02-26T00:49:28.485Z,6.20
2019-02-26T00:51:59.586Z,6.20
2019-02-26T00:54:31.836Z,6.10
2019-02-26T00:57:03.461Z,6.20
2019-02-26T00:59:36.381Z,6.20
2019-02-26T01:02:07.245Z,6.10
2019-02-26T01:04:38.710Z,5.90
2019-02-26T01:07:09.147Z,5.90
2019-02-26T01:09:39.229Z,6.00
2019-02-26T01:12:11.816Z,6.20
2019-02-26T01:14:43.708Z,6.40
2019-02-26T01:17:14.862Z,6.50
2019-02-26T01:19:45.520Z,6.40
2019-02-26T01:22:15.674Z,6.30
2019-02-26T01:24:47.615Z,6.20
2019-02-26T01:27:17.596Z,6.20
2019-02-26T01:29:51.213Z,6.10
2019-02-26T01:32:20.905Z,6.00
2019-02-26T01:34:51.246Z,5.90
2019-02-26T01:37:21.402Z,5.90
2019-02-26T01:39:52.211Z,6.00
2019-02-26T01:42:25.344Z,5.90
2019-02-26T01:44:55.058Z,5.70
2019-02-26T01:47:26.368Z,5.70
2019-02-26T01:49:56.965Z,5.70
2019-02-26T01:52:27.158Z,5.80
2019-02-26T01:54:58.386Z,5.60
2019-02-26T01:57:30.640Z,5.50
2019-02-26T02:00:00.761Z,5.60
2019-02-26T02:02:32.626Z,5.70
2019-02-26T02:05:04.844Z,5.90
2019-02-26T02:07:34.546Z,6.00
2019-02-26T02:10:06.750Z,5.90
2019-02-26T02:12:39.593Z,5.70
2019-02-26T02:15:12.420Z,5.60
2019-02-26T02:17:43.801Z,5.40
2019-02-26T02:20:16.459Z,5.10
2019-02-26T02:22:46.745Z,4.60
2019-02-26T02:25:16.855Z,4.20
2019-02-26T02:27:49.705Z,4.10
2019-02-26T02:30:26.860Z,4.10
2019-02-26T02:32:54.273Z,4.20
2019-02-26T02:35:22.645Z,4.40
2019-02-26T02:37:53.601Z,4.60
2019-02-26T02:40:24.553Z,4.70
2019-02-26T02:42:54.683Z,4.60
2019-02-26T02:45:24.799Z,4.60
2019-02-26T02:47:58.265Z,4.50
2019-02-26T02:50:26.676Z,4.50
2019-02-26T02:52:59.632Z,4.40
2019-02-26T02:55:29.273Z,4.50
2019-02-26T02:58:00.514Z,4.70
2019-02-26T03:00:32.205Z,4.70
2019-02-26T03:03:02.525Z,4.70
2019-02-26T03:05:36.830Z,4.80
2019-02-26T03:08:05.238Z,4.90
2019-02-26T03:10:37.321Z,5.50
2019-02-26T03:13:14.260Z,6.10
2019-02-26T03:15:44.391Z,6.60
2019-02-26T03:18:16.490Z,6.80
2019-02-26T03:20:46.258Z,6.90
2019-02-26T03:23:19.842Z,7.00
2019-02-26T03:25:50.521Z,7.20
2019-02-26T03:28:19.974Z,7.40
2019-02-26T03:30:50.071Z,7.40
2019-02-26T03:33:20.279Z,7.40
2019-02-26T03:35:50.380Z,7.50
2019-02-26T03:38:22.943Z,7.60
2019-02-26T03:40:54.678Z,7.40
2019-02-26T03:43:24.751Z,6.80
2019-02-26T03:45:54.873Z,6.30
2019-02-26T03:48:25.023Z,6.00
2019-02-26T03:50:55.148Z,6.30
2019-02-26T03:53:28.032Z,6.30
2019-02-26T03:56:01.935Z,6.40
2019-02-26T03:58:28.913Z,6.50
2019-02-26T04:01:04.475Z,6.30
2019-02-26T04:03:32.621Z,6.10
2019-02-26T04:06:07.483Z,5.90
2019-02-26T04:08:37.109Z,5.90
2019-02-26T04:11:07.224Z,5.80
2019-02-26T04:13:37.349Z,5.80
2019-02-26T04:16:07.567Z,5.70
2019-02-26T04:18:37.754Z,5.80
2019-02-26T04:21:17.655Z,5.80
2019-02-26T04:23:46.694Z,5.90
2019-02-26T04:26:35.282Z,5.90
2019-02-26T04:29:15.293Z,5.80
2019-02-26T04:32:06.591Z,5.80
2019-02-26T04:34:42.582Z,5.80
2019-02-26T04:37:30.163Z,5.80
2019-02-26T04:40:05.370Z,5.70
2019-02-26T04:42:49.221Z,5.80
2019-02-26T04:45:25.224Z,6.00
2019-02-26T04:48:06.963Z,6.00
2019-02-26T04:50:38.712Z,6.20
2019-02-26T04:53:11.312Z,6.30
2019-02-26T04:55:42.250Z,6.40
2019-02-26T04:58:15.592Z,6.50
2019-02-26T05:00:45.769Z,6.50
2019-02-26T05:03:17.962Z,6.50
2019-02-26T05:05:51.398Z,6.30
2019-02-26T05:08:19.484Z,6.30
2019-02-26T05:10:51.769Z,6.40
2019-02-26T05:13:22.759Z,6.30
2019-02-26T05:15:53.147Z,6.10
2019-02-26T05:18:26.421Z,6.00
2019-02-26T05:20:59.202Z,5.90
2019-02-26T05:23:31.708Z,5.90
2019-02-26T05:26:05.213Z,6.00
2019-02-26T05:28:35.382Z,6.00
2019-02-26T05:31:06.415Z,5.90
2019-02-26T05:33:36.225Z,5.70
2019-02-26T05:36:08.773Z,5.60
2019-02-26T05:38:38.097Z,5.40
2019-02-26T05:41:08.260Z,5.30
2019-02-26T05:43:38.328Z,5.20
2019-02-26T05:46:08.505Z,5.20
2019-02-26T05:48:40.070Z,5.30
2019-02-26T05:51:11.445Z,5.30
2019-02-26T05:53:41.693Z,5.30
2019-02-26T05:56:14.437Z,5.30
2019-02-26T05:58:46.400Z,5.40
2019-02-26T06:01:16.869Z,5.70
2019-02-26T06:03:49.697Z,6.00
2019-02-26T06:06:19.603Z,6.30
2019-02-26T06:08:49.694Z,6.60
2019-02-26T06:11:19.825Z,6.20
2019-02-26T06:13:49.980Z,5.80
2019-02-26T06:16:21.836Z,5.80
2019-02-26T06:18:54.366Z,5.80
2019-02-26T06:21:26.082Z,5.70
2019-02-26T06:23:56.137Z,5.60
2019-02-26T06:26:30.373Z,5.60
2019-02-26T06:29:04.452Z,5.70
2019-02-26T06:31:37.658Z,5.80
2019-02-26T06:34:08.834Z,5.90
2019-02-26T06:36:42.000Z,6.00
2019-02-26T06:39:12.993Z,5.90
2019-02-26T06:41:44.433Z,5.90
2019-02-26T06:44:14.867Z,5.90
2019-02-26T06:46:45.178Z,5.90
2019-02-26T06:49:18.331Z,6.00
2019-02-26T06:51:49.806Z,6.00
2019-02-26T06:54:22.693Z,5.60
2019-02-26T06:56:53.011Z,6.20
2019-02-26T06:59:33.776Z,6.30
2019-02-26T07:02:02.200Z,6.30
2019-02-26T07:04:32.312Z,6.30
2019-02-26T07:07:04.216Z,6.50
2019-02-26T07:09:34.603Z,6.30
2019-02-26T07:12:06.047Z,6.20
2019-02-26T07:14:36.194Z,6.10
2019-02-26T07:17:06.331Z,6.20
2019-02-26T07:19:38.123Z,6.20
2019-02-26T07:22:10.980Z,6.20
2019-02-26T07:24:41.769Z,6.20
2019-02-26T07:27:14.250Z,6.20
2019-02-26T07:29:45.579Z,6.30
2019-02-26T07:32:17.902Z,6.30
2019-02-26T07:34:49.659Z,6.40
2019-02-26T07:37:19.652Z,6.50
2019-02-26T07:39:51.517Z,6.60
2019-02-26T07:42:21.731Z,6.50
2019-02-26T07:44:52.254Z,6.70
2019-02-26T07:47:24.287Z,6.80
2019-02-26T07:49:56.503Z,7.00
2019-02-26T07:52:28.446Z,7.00
2019-02-26T07:54:58.525Z,7.10
2019-02-26T07:57:28.717Z,7.20
2019-02-26T07:59:58.865Z,7.30
2019-02-26T08:02:30.639Z,7.50
2019-02-26T08:05:01.841Z,7.50
2019-02-26T08:07:32.001Z,7.70
2019-02-26T08:10:02.171Z,7.80
2019-02-26T08:12:35.058Z,8.10
2019-02-26T08:15:05.676Z,8.30
2019-02-26T08:17:37.049Z,8.60
2019-02-26T08:20:10.680Z,8.90
2019-02-26T08:22:41.717Z,9.40
2019-02-26T08:25:12.543Z,9.70
2019-02-26T08:27:42.721Z,10.00
2019-02-26T08:30:17.723Z,10.10
2019-02-26T08:32:51.121Z,10.00
2019-02-26T08:35:19.060Z,9.20
2019-02-26T08:37:49.380Z,9.00
2019-02-26T08:40:19.543Z,9.10
2019-02-26T08:42:49.721Z,9.20
2019-02-26T08:45:23.605Z,9.50
2019-02-26T08:47:53.239Z,9.70
2019-02-26T08:50:23.430Z,10.20
2019-02-26T08:52:56.211Z,10.10
2019-02-26T08:55:25.353Z,10.20
2019-02-26T08:57:56.552Z,10.40
2019-02-26T09:00:26.803Z,10.40
2019-02-26T09:02:56.966Z,10.50
2019-02-26T09:05:29.212Z,10.80
2019-02-26T09:07:58.887Z,11.30
2019-02-26T09:10:29.789Z,11.50
2019-02-26T09:12:59.946Z,11.80
2019-02-26T09:15:31.304Z,12.30
2019-02-26T09:18:01.882Z,12.30
2019-02-26T09:20:32.045Z,12.40
2019-02-26T09:23:02.203Z,12.30
2019-02-26T09:25:33.976Z,12.80
2019-02-26T09:28:04.320Z,13.00
2019-02-26T09:30:35.908Z,13.50
2019-02-26T09:33:09.058Z,14.20
2019-02-26T09:35:39.040Z,14.40
2019-02-26T09:38:09.191Z,14.60
2019-02-26T09:40:39.343Z,14.90
2019-02-26T09:43:09.528Z,15.20
2019-02-26T09:45:41.729Z,15.70
2019-02-26T09:48:12.220Z,15.50
2019-02-26T09:50:44.302Z,15.10
2019-02-26T09:53:15.012Z,15.60
2019-02-26T09:55:45.153Z,15.70
2019-02-26T09:58:15.949Z,16.00
2019-02-26T10:00:47.998Z,15.90
2019-02-26T10:03:18.873Z,15.20
2019-02-26T10:05:52.217Z,16.20
2019-02-26T10:08:22.437Z,17.20
2019-02-26T10:10:54.435Z,17.60
2019-02-26T10:13:25.207Z,17.80
2019-02-26T10:15:58.586Z,17.80
2019-02-26T10:18:30.319Z,18.00
2019-02-26T10:20:59.781Z,17.80
2019-02-26T10:23:33.066Z,17.70
2019-02-26T10:26:03.423Z,17.60
2019-02-26T10:28:37.298Z,17.70
2019-02-26T10:31:09.090Z,18.30
2019-02-26T10:33:38.669Z,18.50
2019-02-26T10:36:11.172Z,18.60
2019-02-26T10:38:41.271Z,18.90
2019-02-26T10:41:11.366Z,18.90
2019-02-26T10:43:41.590Z,19.00
2019-02-26T10:46:11.761Z,19.20
2019-02-26T10:48:43.488Z,19.40
2019-02-26T10:51:16.649Z,19.20
2019-02-26T10:53:45.460Z,19.40
2019-02-26T10:56:15.606Z,19.40
2019-02-26T10:58:46.058Z,19.60
2019-02-26T11:01:17.800Z,19.30
2019-02-26T11:03:49.269Z,19.30
2019-02-26T11:06:19.733Z,19.70
2019-02-26T11:08:51.056Z,19.50
2019-02-26T11:11:21.623Z,19.60
2019-02-26T11:13:53.786Z,19.00
2019-02-26T11:16:25.389Z,19.50
2019-02-26T11:18:55.302Z,19.90
2019-02-26T11:21:30.819Z,20.00
2019-02-26T11:24:03.499Z,19.90
2019-02-26T11:26:35.193Z,19.90
2019-02-26T11:29:04.510Z,20.10
2019-02-26T11:31:36.525Z,20.20
2019-02-26T11:34:10.939Z,19.80
2019-02-26T11:36:40.982Z,19.90
2019-02-26T11:39:12.071Z,20.30
2019-02-26T11:41:42.409Z,20.50
2019-02-26T11:44:15.058Z,20.40
2019-02-26T11:46:46.224Z,20.10
2019-02-26T11:49:16.794Z,20.40
2019-02-26T11:51:48.704Z,20.30
2019-02-26T11:54:18.877Z,19.90
2019-02-26T11:56:49.807Z,19.90
2019-02-26T11:59:20.828Z,20.00
2019-02-26T12:01:50.997Z,19.60
2019-02-26T12:04:21.135Z,19.60
2019-02-26T12:06:51.289Z,19.50
2019-02-26T12:09:23.367Z,19.60
2019-02-26T12:11:53.522Z,19.70
2019-02-26T12:14:23.751Z,19.50
2019-02-26T12:16:53.864Z,19.50
2019-02-26T12:19:25.663Z,19.70
2019-02-26T12:21:57.507Z,19.60
2019-02-26T12:24:28.990Z,20.00
2019-02-26T12:27:00.500Z,20.00
2019-02-26T12:29:30.711Z,20.20
2019-02-26T12:32:01.904Z,20.30
2019-02-26T12:34:34.969Z,20.40
2019-02-26T12:37:06.602Z,20.20
2019-02-26T12:39:36.170Z,20.10
2019-02-26T12:42:07.396Z,19.80
2019-02-26T12:44:42.255Z,19.50
2019-02-26T12:47:12.014Z,19.00
2019-02-26T12:49:44.270Z,18.80
2019-02-26T12:52:15.190Z,18.90
2019-02-26T12:54:45.110Z,19.10
2019-02-26T12:57:16.962Z,19.00
2019-02-26T12:59:48.590Z,19.00
2019-02-26T13:02:24.638Z,18.90
2019-02-26T13:04:53.452Z,19.00
2019-02-26T13:07:23.694Z,18.80
2019-02-26T13:09:56.085Z,18.30
2019-02-26T13:12:29.638Z,18.10
2019-02-26T13:15:04.774Z,18.30
2019-02-26T13:17:32.393Z,18.70
2019-02-26T13:20:06.073Z,18.40
2019-02-26T13:22:34.056Z,18.10
2019-02-26T13:25:13.323Z,18.10
2019-02-26T13:27:39.721Z,18.10
2019-02-26T13:30:12.576Z,18.10
2019-02-26T13:32:55.377Z,18.20
2019-02-26T13:35:16.088Z,18.20
2019-02-26T13:37:48.520Z,18.30
2019-02-26T13:40:23.169Z,18.50
2019-02-26T13:45:26.091Z,17.90
2019-02-26T13:48:01.041Z,17.70
2019-02-26T13:50:35.168Z,17.30
2019-02-26T13:53:05.718Z,17.00
2019-02-26T13:55:36.013Z,16.80
2019-02-26T13:58:11.740Z,16.70
2019-02-26T14:00:38.110Z,16.70
2019-02-26T14:03:08.222Z,16.70
2019-02-26T14:05:38.583Z,16.70
2019-02-26T14:08:08.719Z,16.70
2019-02-26T14:10:38.890Z,16.60
2019-02-26T14:13:09.006Z,16.60
2019-02-26T14:15:39.514Z,16.70
2019-02-26T14:18:09.612Z,16.70
2019-02-26T14:20:39.833Z,16.80
2019-02-26T14:23:12.269Z,16.80
2019-02-26T14:25:42.434Z,16.70
2019-02-26T14:28:12.565Z,16.60
2019-02-26T14:30:42.790Z,16.60
2019-02-26T14:33:12.895Z,16.40
2019-02-26T14:35:43.057Z,16.40
2019-02-26T14:38:14.506Z,16.40
2019-02-26T14:40:44.703Z,16.50
2019-02-26T14:43:14.800Z,16.70
2019-02-26T14:45:44.969Z,16.70
2019-02-26T14:48:15.283Z,16.20
2019-02-26T14:50:45.453Z,15.90
2019-02-26T14:53:15.623Z,15.80
2019-02-26T14:55:45.838Z,15.50
2019-02-26T14:58:15.973Z,15.30
2019-02-26T15:00:54.967Z,15.10
2019-02-26T15:03:17.922Z,15.10
2019-02-26T15:05:48.098Z,15.00
2019-02-26T15:08:18.215Z,14.80
2019-02-26T15:10:48.389Z,14.70
2019-02-26T15:13:18.501Z,14.50
2019-02-26T15:15:48.654Z,14.30
2019-02-26T15:18:24.113Z,14.30
2019-02-26T15:20:54.341Z,14.40
2019-02-26T15:23:24.464Z,14.30
2019-02-26T15:25:54.638Z,14.20
2019-02-26T15:28:24.805Z,14.20
2019-02-26T15:30:55.361Z,14.20
2019-02-26T15:33:25.500Z,14.20
2019-02-26T15:35:55.697Z,14.10
2019-02-26T15:38:25.840Z,14.00
2019-02-26T15:40:56.922Z,14.00
2019-02-26T15:43:27.050Z,13.90
2019-02-26T15:45:57.780Z,13.60
2019-02-26T15:48:28.948Z,13.50
2019-02-26T15:50:59.127Z,13.20
2019-02-26T15:53:29.528Z,13.00
2019-02-26T15:56:00.023Z,12.90
2019-02-26T15:58:30.193Z,12.60
2019-02-26T16:01:00.378Z,12.40
2019-02-26T16:03:30.483Z,12.20
2019-02-26T16:06:00.662Z,12.10
2019-02-26T16:08:34.553Z,12.00
2019-02-26T16:11:02.541Z,11.90
2019-02-26T16:13:32.650Z,11.80
2019-02-26T16:16:02.930Z,11.90
2019-02-26T16:18:33.777Z,11.90
2019-02-26T16:21:04.041Z,11.90
2019-02-26T16:23:34.161Z,11.90
2019-02-26T16:26:05.628Z,11.70
2019-02-26T16:28:36.141Z,11.60
2019-02-26T16:31:06.399Z,11.70
2019-02-26T16:33:36.636Z,11.60
2019-02-26T16:36:06.793Z,11.40
2019-02-26T16:38:38.499Z,11.10
2019-02-26T16:41:08.653Z,11.00
2019-02-26T16:43:38.829Z,11.00
2019-02-26T16:46:11.262Z,10.90
2019-02-26T16:48:41.418Z,10.80
2019-02-26T16:51:11.586Z,10.50
2019-02-26T16:53:41.778Z,10.40
2019-02-26T16:56:11.957Z,10.40
2019-02-26T16:58:42.220Z,10.40
2019-02-26T17:01:12.987Z,10.30
2019-02-26T17:03:43.132Z,10.20
2019-02-26T17:06:13.295Z,10.20
2019-02-26T17:08:44.690Z,10.20
2019-02-26T17:11:15.275Z,10.00
2019-02-26T17:13:45.462Z,10.00
2019-02-26T17:16:17.929Z,10.00
2019-02-26T17:18:48.072Z,9.90
2019-02-26T17:21:18.615Z,9.90
2019-02-26T17:23:48.878Z,9.80
2019-02-26T17:26:19.033Z,9.80
2019-02-26T17:28:49.174Z,9.80
2019-02-26T17:31:19.334Z,9.90
2019-02-26T17:33:49.460Z,9.80
2019-02-26T17:36:19.597Z,9.70
2019-02-26T17:38:51.752Z,9.50
2019-02-26T17:41:21.736Z,9.30
2019-02-26T17:43:53.440Z,9.20
2019-02-26T17:46:23.916Z,9.10
2019-02-26T17:48:54.026Z,8.90
2019-02-26T17:51:24.177Z,8.70
2019-02-26T17:53:54.337Z,8.60
2019-02-26T17:56:26.734Z,8.50
2019-02-26T17:58:58.853Z,8.40
2019-02-26T18:01:28.983Z,8.50
2019-02-26T18:03:59.834Z,8.50
2019-02-26T18:06:29.944Z,8.40
2019-02-26T18:09:00.085Z,8.30
2019-02-26T18:11:30.206Z,8.20
2019-02-26T18:14:00.779Z,8.20
2019-02-26T18:16:34.369Z,8.10
2019-02-26T18:19:03.756Z,8.10
2019-02-26T18:21:33.899Z,8.00
2019-02-26T18:24:04.055Z,8.00
2019-02-26T18:26:34.149Z,8.00
2019-02-26T18:29:04.299Z,8.00
2019-02-26T18:31:35.214Z,7.90
2019-02-26T18:34:05.754Z,7.90
2019-02-26T18:36:35.979Z,7.90
2019-02-26T18:39:06.509Z,7.90
2019-02-26T18:41:37.505Z,8.00
2019-02-26T18:44:09.528Z,8.20
2019-02-26T18:46:39.415Z,8.30
2019-02-26T18:49:09.560Z,8.40
2019-02-26T18:51:39.758Z,8.30
2019-02-26T18:54:09.905Z,8.30
2019-02-26T18:56:40.013Z,8.20
2019-02-26T18:59:10.151Z,8.20
2019-02-26T19:01:45.727Z,8.20
2019-02-26T19:04:16.287Z,8.20
2019-02-26T19:06:47.098Z,8.10
2019-02-26T19:09:19.081Z,7.90
2019-02-26T19:11:49.335Z,7.80
2019-02-26T19:14:20.995Z,7.80
2019-02-26T19:16:54.920Z,7.80
2019-02-26T19:19:24.846Z,7.70
2019-02-26T19:21:55.252Z,7.60
2019-02-26T19:24:25.605Z,7.50
2019-02-26T19:26:57.569Z,7.50
2019-02-26T19:29:31.199Z,7.50
2019-02-26T19:31:59.796Z,7.40
2019-02-26T19:34:31.474Z,7.30
2019-02-26T19:37:01.874Z,7.20
2019-02-26T19:39:33.802Z,7.00
2019-02-26T19:42:04.099Z,6.90
2019-02-26T19:44:35.880Z,6.80
2019-02-26T19:47:06.155Z,6.80
2019-02-26T19:49:36.849Z,6.70
2019-02-26T19:52:08.069Z,6.60
2019-02-26T19:54:41.568Z,6.60
2019-02-26T19:57:09.992Z,6.50
2019-02-26T19:59:40.130Z,6.40
2019-02-26T20:02:10.277Z,6.40
2019-02-26T20:04:40.436Z,6.30
2019-02-26T20:07:10.542Z,6.30
2019-02-26T20:09:41.606Z,6.40
2019-02-26T20:12:11.841Z,6.40
2019-02-26T20:14:41.961Z,6.50
2019-02-26T20:17:14.701Z,6.50
2019-02-26T20:19:43.841Z,6.40
2019-02-26T20:22:14.016Z,6.20
2019-02-26T20:24:44.133Z,6.20
2019-02-26T20:27:14.269Z,6.10
2019-02-26T20:29:44.426Z,6.00
2019-02-26T20:32:15.570Z,6.00
2019-02-26T20:34:46.121Z,6.00
2019-02-26T20:37:16.269Z,6.10
2019-02-26T20:39:46.401Z,6.00
2019-02-26T20:42:18.824Z,6.10
2019-02-26T20:44:58.665Z,6.20
2019-02-26T20:47:21.727Z,6.20
2019-02-26T20:49:51.876Z,6.30
2019-02-26T20:52:22.079Z,6.20
2019-02-26T20:54:52.238Z,6.20
2019-02-26T20:57:22.389Z,6.20
2019-02-26T20:59:52.600Z,5.90
2019-02-26T21:02:22.764Z,5.70
2019-02-26T21:04:53.007Z,5.50
2019-02-26T21:07:24.504Z,5.50
2019-02-26T21:10:03.311Z,5.60
2019-02-26T21:12:28.650Z,5.90
2019-02-26T21:14:58.402Z,6.00
2019-02-26T21:17:28.550Z,5.80
2019-02-26T21:19:58.692Z,5.70
2019-02-26T21:22:28.856Z,5.60
2019-02-26T21:24:58.976Z,5.40
2019-02-26T21:27:29.245Z,5.40
2019-02-26T21:29:59.406Z,5.40
2019-02-26T21:32:29.519Z,5.20
2019-02-26T21:34:59.669Z,5.10
2019-02-26T21:37:32.638Z,5.00
2019-02-26T21:40:01.712Z,4.90
2019-02-26T21:42:33.435Z,4.80
2019-02-26T21:45:04.277Z,4.80
2019-02-26T21:47:35.410Z,4.80
2019-02-26T21:50:07.774Z,4.90
2019-02-26T21:52:39.769Z,4.80
2019-02-26T21:55:11.909Z,4.70
2019-02-26T21:57:42.166Z,4.60
2019-02-26T22:00:19.984Z,4.50
2019-02-26T22:02:52.074Z,4.40
2019-02-26T22:05:21.517Z,4.30
2019-02-26T22:07:52.390Z,4.30
2019-02-26T22:10:23.178Z,4.30
2019-02-26T22:12:56.603Z,4.10
2019-02-26T22:15:25.254Z,4.10
2019-02-26T22:17:55.725Z,4.20
2019-02-26T22:20:35.942Z,4.30
2019-02-26T22:23:00.409Z,4.60
2019-02-26T22:25:31.860Z,4.70
2019-02-26T22:28:02.001Z,4.70
2019-02-26T22:30:32.162Z,4.50
2019-02-26T22:33:02.436Z,4.40
2019-02-26T22:35:32.538Z,4.30
2019-02-26T22:38:02.794Z,4.30
2019-02-26T22:40:34.255Z,4.00
2019-02-26T22:43:04.559Z,4.10
2019-02-26T22:45:34.676Z,4.00
2019-02-26T22:48:04.967Z,4.10
2019-02-26T22:50:35.101Z,4.00
2019-02-26T22:53:05.242Z,3.90
2019-02-26T22:55:35.366Z,3.90
2019-02-26T22:58:05.547Z,3.80
2019-02-26T23:00:55.687Z,3.80
2019-02-26T23:03:28.113Z,3.70
2019-02-26T23:05:59.028Z,3.70
2019-02-26T23:08:30.219Z,3.70
2019-02-26T23:11:00.312Z,3.80
2019-02-26T23:13:31.930Z,3.70
2019-02-26T23:16:02.957Z,3.70
2019-02-26T23:18:33.122Z,3.60
2019-02-26T23:21:03.345Z,3.70
2019-02-26T23:23:34.609Z,3.70
2019-02-26T23:26:08.681Z,3.80
2019-02-26T23:28:36.589Z,3.70
2019-02-26T23:31:07.432Z,3.70
2019-02-26T23:33:40.763Z,3.70
2019-02-26T23:36:10.790Z,3.60
2019-02-26T23:38:43.865Z,3.60
2019-02-26T23:41:12.786Z,3.60
2019-02-26T23:43:45.248Z,3.60
2019-02-26T23:46:14.735Z,3.60
2019-02-26T23:48:44.895Z,3.60
2019-02-26T23:51:15.024Z,3.60
2019-02-26T23:53:45.208Z,3.60
2019-02-26T23:56:16.774Z,3.60
2019-02-26T23:58:47.246Z,3.60
